createdAt,value
2023-05-09T00:01:31.271Z,14.63
2023-05-09T00:04:35.394Z,15.17
2023-05-09T00:07:38.267Z,14.33
2023-05-09T00:10:40.881Z,15.38
2023-05-09T00:13:44.089Z,14.00
2023-05-09T00:16:46.924Z,16.45
2023-05-09T00:19:51.520Z,17.55
2023-05-09T00:22:55.299Z,17.67
2023-05-09T00:25:58.051Z,16.20
2023-05-09T00:29:00.565Z,16.08
2023-05-09T00:32:03.720Z,16.40
2023-05-09T00:35:09.921Z,16.55
2023-05-09T00:38:12.477Z,16.60
2023-05-09T00:41:15.038Z,17.63
2023-05-09T00:44:17.619Z,15.63
2023-05-09T00:47:24.138Z,17.08
2023-05-09T00:50:28.307Z,17.07
2023-05-09T00:53:31.074Z,17.90
2023-05-09T00:56:33.640Z,18.25
2023-05-09T00:59:36.155Z,17.65
2023-05-09T01:02:38.770Z,17.98
2023-05-09T01:05:48.301Z,17.90
2023-05-09T01:08:57.609Z,18.87
2023-05-09T01:12:08.380Z,18.00
2023-05-09T01:15:13.802Z,19.30
2023-05-09T01:18:32.204Z,18.43
2023-05-09T01:21:36.605Z,18.70
2023-05-09T01:24:57.215Z,17.83
2023-05-09T01:28:09.081Z,17.77
2023-05-09T01:31:13.586Z,18.17
2023-05-09T01:34:17.748Z,18.50
2023-05-09T01:37:25.537Z,17.83
2023-05-09T01:40:32.206Z,18.00
2023-05-09T01:43:35.716Z,19.40
2023-05-09T01:46:40.587Z,18.47
2023-05-09T01:49:44.284Z,17.73
2023-05-09T01:52:48.956Z,18.83
2023-05-09T01:55:52.256Z,17.43
2023-05-09T01:58:57.214Z,18.73
2023-05-09T02:02:01.349Z,18.60
2023-05-09T02:05:04.320Z,18.43
2023-05-09T02:08:07.298Z,19.13
2023-05-09T02:11:09.864Z,19.67
2023-05-09T02:14:12.385Z,18.98
2023-05-09T02:17:17.028Z,18.83
2023-05-09T02:20:19.718Z,17.90
2023-05-09T02:23:22.388Z,19.02
2023-05-09T02:26:25.780Z,18.65
2023-05-09T02:32:35.261Z,18.10
2023-05-09T02:35:38.227Z,18.10
2023-05-09T02:38:42.147Z,17.38
2023-05-09T02:41:49.270Z,17.03
2023-05-09T02:44:51.956Z,17.67
2023-05-09T02:47:55.968Z,17.85
2023-05-09T02:50:58.687Z,18.23
2023-05-09T02:54:01.281Z,18.25
2023-05-09T02:57:03.978Z,17.77
2023-05-09T03:00:09.452Z,18.02
2023-05-09T03:03:13.627Z,16.97
2023-05-09T03:06:16.325Z,17.97
2023-05-09T03:09:18.825Z,19.45
2023-05-09T03:12:21.303Z,18.33
2023-05-09T03:15:24.524Z,17.23
2023-05-09T03:18:28.425Z,17.42
2023-05-09T03:21:31.910Z,17.37
2023-05-09T03:27:37.075Z,18.17
2023-05-09T03:30:39.672Z,16.70
2023-05-09T03:33:43.640Z,16.95
2023-05-09T03:36:46.238Z,18.10
2023-05-09T03:39:48.864Z,18.63
2023-05-09T03:42:51.458Z,19.10
2023-05-09T03:45:54.355Z,18.70
2023-05-09T03:48:58.289Z,19.73
2023-05-09T03:52:00.835Z,18.77
2023-05-09T03:55:03.411Z,18.90
2023-05-09T03:58:06.246Z,20.20
2023-05-09T04:01:08.855Z,18.90
2023-05-09T04:04:13.076Z,17.70
2023-05-09T04:07:15.714Z,18.43
2023-05-09T04:10:18.500Z,19.52
2023-05-09T04:13:21.351Z,18.90
2023-05-09T04:16:24.044Z,18.85
2023-05-09T04:19:27.952Z,17.60
2023-05-09T04:22:30.594Z,18.97
2023-05-09T04:25:34.508Z,18.92
2023-05-09T04:28:37.090Z,18.37
2023-05-09T04:31:39.832Z,17.42
2023-05-09T04:34:43.794Z,17.30
2023-05-09T04:37:46.508Z,18.47
2023-05-09T04:40:48.991Z,17.98
2023-05-09T04:43:51.836Z,17.07
2023-05-09T04:46:55.082Z,17.95
2023-05-09T04:49:59.041Z,17.27
2023-05-09T04:53:01.610Z,17.40
2023-05-09T04:56:04.195Z,18.08
2023-05-09T04:59:07.022Z,17.90
2023-05-09T05:02:09.537Z,16.65
2023-05-09T05:05:13.621Z,17.40
2023-05-09T05:08:16.255Z,17.13
2023-05-09T05:11:19.134Z,15.73
2023-05-09T05:14:22.115Z,15.73
2023-05-09T05:17:24.864Z,16.35
2023-05-09T05:20:28.973Z,15.70
2023-05-09T05:23:31.539Z,17.00
2023-05-09T05:26:34.088Z,15.77
2023-05-09T05:29:36.582Z,15.52
2023-05-09T05:32:39.281Z,15.38
2023-05-09T05:35:43.214Z,15.80
2023-05-09T05:38:45.867Z,16.60
2023-05-09T05:41:48.424Z,16.90
2023-05-09T05:44:51.170Z,16.35
2023-05-09T05:47:54.447Z,15.50
2023-05-09T05:54:01.432Z,15.80
2023-05-09T05:57:04.045Z,15.73
2023-05-09T06:00:10.437Z,15.75
2023-05-09T06:03:14.339Z,15.50
2023-05-09T06:06:18.381Z,15.23
2023-05-09T06:09:20.862Z,16.87
2023-05-09T06:12:23.577Z,16.15
2023-05-09T06:15:26.173Z,15.95
2023-05-09T06:18:29.204Z,14.70
2023-05-09T06:21:34.166Z,15.43
2023-05-09T06:24:36.799Z,15.20
2023-05-09T06:27:39.338Z,14.80
2023-05-09T06:30:41.861Z,14.95
2023-05-09T06:33:44.381Z,13.90
2023-05-09T06:36:48.650Z,15.07
2023-05-09T06:39:51.537Z,14.57
2023-05-09T06:42:54.077Z,15.27
2023-05-09T06:45:56.804Z,14.30
2023-05-09T06:49:01.637Z,13.55
2023-05-09T06:52:05.857Z,15.00
2023-05-09T06:55:09.976Z,13.73
2023-05-09T06:58:12.697Z,15.47
2023-05-09T07:01:15.519Z,14.82
2023-05-09T07:04:18.074Z,14.50
2023-05-09T07:07:22.135Z,13.38
2023-05-09T07:10:24.702Z,15.57
2023-05-09T07:13:27.572Z,12.82
2023-05-09T07:16:30.471Z,13.93
2023-05-09T07:19:32.956Z,20.25
2023-05-09T07:22:37.791Z,12.63
2023-05-09T07:25:40.582Z,11.97
2023-05-09T07:28:43.113Z,11.77
2023-05-09T07:31:45.727Z,12.77
2023-05-09T07:34:48.631Z,13.02
2023-05-09T07:37:52.800Z,12.05
2023-05-09T07:40:55.555Z,11.97
2023-05-09T07:43:58.391Z,12.43
2023-05-09T07:47:02.643Z,12.45
2023-05-09T07:50:05.802Z,14.00
2023-05-09T07:53:09.905Z,11.25
2023-05-09T07:56:13.541Z,11.23
2023-05-09T07:59:16.992Z,11.13
2023-05-09T08:02:19.768Z,11.30
2023-05-09T08:05:22.294Z,10.38
2023-05-09T08:08:27.146Z,11.57
2023-05-09T08:11:29.760Z,12.40
2023-05-09T08:14:32.344Z,10.90
2023-05-09T08:17:35.145Z,12.00
2023-05-09T08:20:37.840Z,12.00
2023-05-09T08:23:41.741Z,12.48
2023-05-09T08:26:45.301Z,11.43
2023-05-09T08:29:47.859Z,11.47
2023-05-09T08:32:50.380Z,11.35
2023-05-09T08:35:52.994Z,10.80
2023-05-09T08:38:56.915Z,10.63
2023-05-09T08:42:00.506Z,11.00
2023-05-09T08:45:07.676Z,11.03
2023-05-09T08:48:10.870Z,10.63
2023-05-09T08:51:13.772Z,10.37
2023-05-09T08:54:17.791Z,10.88
2023-05-09T08:57:20.904Z,10.53
2023-05-09T09:03:26.459Z,11.38
2023-05-09T09:06:30.049Z,10.23
2023-05-09T09:09:34.709Z,9.47
2023-05-09T09:12:38.160Z,10.50
2023-05-09T09:15:42.463Z,11.23
2023-05-09T09:18:45.847Z,9.73
2023-05-09T09:21:51.267Z,10.10
2023-05-09T09:24:55.332Z,10.57
2023-05-09T09:27:57.877Z,9.52
2023-05-09T09:31:00.452Z,9.18
2023-05-09T09:34:03.484Z,9.38
2023-05-09T09:43:14.216Z,9.18
2023-05-09T09:46:18.290Z,9.23
2023-05-09T09:49:22.448Z,8.82
2023-05-09T09:52:25.934Z,9.20
2023-05-09T09:55:29.927Z,10.50
2023-05-09T09:58:32.588Z,8.32
2023-05-09T10:01:35.456Z,8.35
2023-05-09T10:07:41.313Z,8.38
2023-05-09T10:10:45.459Z,9.93
2023-05-09T10:13:48.268Z,8.60
2023-05-09T10:19:54.165Z,10.35
2023-05-09T10:22:58.658Z,9.63
2023-05-09T10:26:07.261Z,9.35
2023-05-09T10:29:11.759Z,8.48
2023-05-09T10:32:17.628Z,7.82
2023-05-09T10:35:21.825Z,8.18
2023-05-09T10:38:24.936Z,8.60
2023-05-09T10:41:29.587Z,7.28
2023-05-09T10:44:32.369Z,8.73
2023-05-09T10:50:40.302Z,13.15
2023-05-09T10:53:44.502Z,8.60
2023-05-09T10:56:48.516Z,8.80
2023-05-09T10:59:52.424Z,7.97
2023-05-09T11:03:07.358Z,8.57
2023-05-09T11:06:10.126Z,8.77
2023-05-09T11:12:32.122Z,8.85
2023-05-09T11:15:34.797Z,8.98
2023-05-09T11:18:51.138Z,8.13
2023-05-09T11:22:01.813Z,7.50
2023-05-09T11:25:05.994Z,6.70
2023-05-09T11:28:11.761Z,5.93
2023-05-09T11:31:16.136Z,5.07
2023-05-09T11:34:21.529Z,5.97
2023-05-09T11:37:24.610Z,3.95
2023-05-09T11:40:28.075Z,4.50
2023-05-09T11:43:32.221Z,4.13
2023-05-09T11:46:34.744Z,3.78
2023-05-09T11:49:37.325Z,4.53
2023-05-09T11:52:40.809Z,3.67
2023-05-09T11:55:43.384Z,2.80
2023-05-09T11:58:47.302Z,3.58
2023-05-09T12:01:49.925Z,3.88
2023-05-09T12:07:55.195Z,2.85
2023-05-09T12:11:08.920Z,2.30
2023-05-09T12:14:12.793Z,2.55
2023-05-09T12:17:15.377Z,2.97
2023-05-09T12:23:20.883Z,3.53
2023-05-09T12:26:23.635Z,3.08
2023-05-09T12:29:28.134Z,2.90
2023-05-09T12:32:32.969Z,3.10
2023-05-09T12:35:36.405Z,3.53
2023-05-09T12:38:39.156Z,3.03
2023-05-09T12:41:57.500Z,2.90
2023-05-09T12:45:06.151Z,2.70
2023-05-09T12:48:09.610Z,2.22
2023-05-09T12:51:12.283Z,2.40
2023-05-09T12:54:14.958Z,2.20
2023-05-09T12:57:24.262Z,1.92
2023-05-09T13:00:28.398Z,2.03
2023-05-09T13:03:37.700Z,1.75
2023-05-09T13:06:49.225Z,1.58
2023-05-09T13:09:57.918Z,1.45
2023-05-09T13:13:00.640Z,1.63
2023-05-09T13:16:05.995Z,1.25
2023-05-09T13:19:09.473Z,1.20
2023-05-09T13:25:16.069Z,1.60
2023-05-09T13:28:18.577Z,1.38
2023-05-09T13:31:22.761Z,1.42
2023-05-09T13:34:25.765Z,1.30
2023-05-09T13:37:28.590Z,1.38
2023-05-09T13:40:31.132Z,1.20
2023-05-09T13:43:33.848Z,1.58
2023-05-09T13:49:40.645Z,1.40
2023-05-09T13:52:43.410Z,1.40
2023-05-09T13:55:46.344Z,1.50
2023-05-09T13:58:49.017Z,1.40
2023-05-09T14:04:55.519Z,1.50
2023-05-09T14:07:58.225Z,1.40
2023-05-09T14:14:03.214Z,1.50
2023-05-09T14:17:07.101Z,1.70
2023-05-09T14:20:10.608Z,1.52
2023-05-09T14:23:13.475Z,1.40
2023-05-09T14:26:16.111Z,1.80
2023-05-09T14:32:22.691Z,1.38
2023-05-09T14:35:25.454Z,1.35
2023-05-09T14:41:31.751Z,1.83
2023-05-09T14:44:34.351Z,1.20
2023-05-09T14:47:38.431Z,1.00
2023-05-09T14:50:41.037Z,0.80
2023-05-09T14:53:43.583Z,1.25
2023-05-09T14:56:46.259Z,1.27
2023-05-09T14:59:48.840Z,0.70
2023-05-09T15:02:52.800Z,0.93
2023-05-09T15:05:55.370Z,0.97
2023-05-09T15:08:57.995Z,0.60
2023-05-09T15:12:01.866Z,1.08
2023-05-09T15:18:18.466Z,1.00
2023-05-09T15:21:21.116Z,0.68
2023-05-09T15:27:26.336Z,0.70
2023-05-09T15:30:29.106Z,0.80
2023-05-09T15:33:33.209Z,0.75
2023-05-09T15:36:35.733Z,0.93
2023-05-09T15:39:43.246Z,1.17
2023-05-09T15:42:48.153Z,0.80
2023-05-09T15:45:51.168Z,1.20
2023-05-09T15:48:56.230Z,0.73
2023-05-09T15:51:58.785Z,0.80
2023-05-09T15:55:01.565Z,1.60
2023-05-09T16:01:07.998Z,1.40
2023-05-09T16:04:13.862Z,1.50
2023-05-09T16:07:16.422Z,1.10
2023-05-09T16:10:19.023Z,1.33
2023-05-09T16:13:22.373Z,1.33
2023-05-09T16:16:25.137Z,1.08
2023-05-09T16:19:29.519Z,1.30
2023-05-09T16:22:32.144Z,1.10
2023-05-09T16:25:35.519Z,1.05
2023-05-09T16:28:40.103Z,1.40
2023-05-09T16:31:44.837Z,1.17
2023-05-09T16:34:49.177Z,1.53
2023-05-09T16:37:51.866Z,1.43
2023-05-09T16:40:54.753Z,1.40
2023-05-09T16:43:57.397Z,1.20
2023-05-09T16:47:01.046Z,1.20
2023-05-09T16:50:05.713Z,1.70
2023-05-09T16:53:08.456Z,1.40
2023-05-09T16:56:11.382Z,1.55
2023-05-09T16:59:14.208Z,1.50
2023-05-09T17:02:17.049Z,1.38
2023-05-09T17:05:21.430Z,1.00
2023-05-09T17:08:24.164Z,1.17
2023-05-09T17:11:27.235Z,1.65
2023-05-09T17:17:32.552Z,1.27
2023-05-09T17:20:36.689Z,1.67
2023-05-09T17:23:39.274Z,2.03
2023-05-09T17:26:41.805Z,1.63
2023-05-09T17:29:44.461Z,2.15
2023-05-09T17:32:47.162Z,1.90
2023-05-09T17:35:51.212Z,2.03
2023-05-09T17:38:53.908Z,1.63
2023-05-09T17:41:56.519Z,2.13
2023-05-09T17:44:59.183Z,1.73
2023-05-09T17:48:02.337Z,1.27
2023-05-09T17:54:10.372Z,1.87
2023-05-09T17:57:13.057Z,0.90
2023-05-09T18:00:16.756Z,0.90
2023-05-09T18:03:19.662Z,0.90
2023-05-09T18:06:24.017Z,1.02
2023-05-09T18:09:26.571Z,1.20
2023-05-09T18:12:31.056Z,1.02
2023-05-09T18:15:37.877Z,2.17
2023-05-09T18:18:40.631Z,1.87
2023-05-09T18:21:44.556Z,1.30
2023-05-09T18:24:47.078Z,1.20
2023-05-09T18:27:49.745Z,1.67
2023-05-09T18:30:54.484Z,2.05
2023-05-09T18:33:57.066Z,1.87
2023-05-09T18:37:00.974Z,2.00
2023-05-09T18:40:05.172Z,1.57
2023-05-09T18:43:07.928Z,1.60
2023-05-09T18:46:10.882Z,1.20
2023-05-09T18:49:13.368Z,1.58
2023-05-09T18:52:19.038Z,1.40
2023-05-09T18:55:22.305Z,1.30
2023-05-09T19:01:28.067Z,1.77
2023-05-09T19:04:30.898Z,1.50
2023-05-09T19:07:34.953Z,1.40
2023-05-09T19:10:37.984Z,1.30
2023-05-09T19:13:48.088Z,1.67
2023-05-09T19:16:51.369Z,1.30
2023-05-09T19:22:57.677Z,1.70
2023-05-09T19:26:00.268Z,1.60
2023-05-09T19:29:07.811Z,1.27
2023-05-09T19:32:10.468Z,1.50
2023-05-09T19:35:13.027Z,1.70
2023-05-09T19:38:17.099Z,1.92
2023-05-09T19:41:19.886Z,1.70
2023-05-09T19:44:22.531Z,1.70
2023-05-09T19:47:25.197Z,1.73
2023-05-09T19:50:27.742Z,2.20
2023-05-09T19:53:31.661Z,2.25
2023-05-09T19:56:34.215Z,2.00
2023-05-09T19:59:36.742Z,2.58
2023-05-09T20:02:39.874Z,1.30
2023-05-09T20:05:42.589Z,1.40
2023-05-09T20:08:47.002Z,1.90
2023-05-09T20:11:50.495Z,1.43
2023-05-09T20:14:53.164Z,1.57
2023-05-09T20:17:56.038Z,1.55
2023-05-09T20:20:58.637Z,1.20
2023-05-09T20:24:03.027Z,1.73
2023-05-09T20:27:05.614Z,1.90
2023-05-09T20:30:09.237Z,1.17
2023-05-09T20:33:11.727Z,1.57
2023-05-09T20:36:15.350Z,0.98
2023-05-09T20:39:19.425Z,1.20
2023-05-09T20:42:23.184Z,1.77
2023-05-09T20:45:26.004Z,1.20
2023-05-09T20:48:28.670Z,1.08
2023-05-09T20:51:31.531Z,1.30
2023-05-09T20:54:35.368Z,1.05
2023-05-09T20:57:37.909Z,1.13
2023-05-09T21:00:40.492Z,1.00
2023-05-09T21:03:43.223Z,1.25
2023-05-09T21:06:45.905Z,1.15
2023-05-09T21:09:50.845Z,1.40
2023-05-09T21:12:53.840Z,1.00
2023-05-09T21:15:56.341Z,1.17
2023-05-09T21:19:02.494Z,1.30
2023-05-09T21:22:05.203Z,1.20
2023-05-09T21:25:10.071Z,0.88
2023-05-09T21:28:14.369Z,0.83
2023-05-09T21:31:16.978Z,0.80
2023-05-09T21:34:19.552Z,1.08
2023-05-09T21:37:22.106Z,1.88
2023-05-09T21:40:26.009Z,1.30
2023-05-09T21:43:28.913Z,1.50
2023-05-09T21:46:32.816Z,1.10
2023-05-09T21:49:35.337Z,1.33
2023-05-09T21:52:37.927Z,1.17
2023-05-09T21:55:41.889Z,1.42
2023-05-09T21:58:44.498Z,1.23
2023-05-09T22:01:47.291Z,1.75
2023-05-09T22:04:50.295Z,1.13
2023-05-09T22:07:52.871Z,1.02
2023-05-09T22:10:56.771Z,1.20
2023-05-09T22:13:59.479Z,1.40
2023-05-09T22:17:02.062Z,2.00
2023-05-09T22:20:05.819Z,1.45
2023-05-09T22:23:08.471Z,1.40
2023-05-09T22:26:12.304Z,1.40
2023-05-09T22:29:16.482Z,1.40
2023-05-09T22:32:19.067Z,1.30
2023-05-09T22:35:21.556Z,0.82
2023-05-09T22:38:24.364Z,0.97
2023-05-09T22:41:28.495Z,1.20
2023-05-09T22:44:32.335Z,1.07
2023-05-09T22:47:35.097Z,1.30
2023-05-09T22:50:37.683Z,1.05
2023-05-09T22:53:40.210Z,1.30
2023-05-09T22:56:44.527Z,2.28
2023-05-09T22:59:47.172Z,1.30
2023-05-09T23:02:49.899Z,1.05
2023-05-09T23:05:52.820Z,1.27
2023-05-09T23:08:55.292Z,1.17
2023-05-09T23:11:59.525Z,1.80
2023-05-09T23:15:02.035Z,1.30
2023-05-09T23:18:04.948Z,1.65
2023-05-09T23:21:07.543Z,1.52
2023-05-09T23:24:10.049Z,1.40
2023-05-09T23:27:13.926Z,0.98
2023-05-09T23:30:16.793Z,1.30
2023-05-09T23:33:19.514Z,1.00
2023-05-09T23:36:22.148Z,0.90
2023-05-09T23:39:24.639Z,0.80
2023-05-09T23:42:28.835Z,0.95
2023-05-09T23:45:31.364Z,0.70
2023-05-09T23:48:33.905Z,0.52
2023-05-09T23:51:36.405Z,0.50
2023-05-09T23:54:39.780Z,0.55
